createdAt,value
2023-03-27T00:00:27.303Z,101046.00
2023-03-27T00:05:31.330Z,101076.53
2023-03-27T00:10:34.102Z,101077.75
2023-03-27T00:15:37.523Z,101084.69
2023-03-27T00:20:42.500Z,101092.06
2023-03-27T00:25:47.490Z,101101.06
2023-03-27T00:30:50.234Z,101093.03
2023-03-27T00:35:55.037Z,101120.63
2023-03-27T00:40:57.922Z,101123.19
2023-03-27T00:46:09.014Z,101075.38
2023-03-27T00:51:13.628Z,101080.78
2023-03-27T00:56:16.816Z,101132.72
2023-03-27T01:01:21.092Z,101147.63
2023-03-27T01:06:26.340Z,101149.03
2023-03-27T01:11:39.274Z,101160.53
2023-03-27T01:16:50.266Z,101109.63
2023-03-27T01:22:24.954Z,101155.06
2023-03-27T01:27:44.051Z,101187.59
2023-03-27T01:33:09.495Z,101197.44
2023-03-27T01:38:45.404Z,101191.16
2023-03-27T01:43:57.563Z,101195.44
2023-03-27T01:49:05.547Z,101204.59
2023-03-27T01:54:13.541Z,101116.44
2023-03-27T01:59:22.817Z,101223.72
2023-03-27T02:04:32.932Z,101228.19
2023-03-27T02:09:38.993Z,101153.81
2023-03-27T02:14:49.151Z,101243.78
2023-03-27T02:19:57.303Z,101238.34
2023-03-27T02:25:00.507Z,101257.19
2023-03-27T02:30:12.053Z,101268.63
2023-03-27T02:35:28.357Z,101131.56
2023-03-27T02:40:40.932Z,101180.91
2023-03-27T02:46:10.622Z,101276.00
2023-03-27T02:51:18.122Z,101273.50
2023-03-27T02:56:23.960Z,101228.66
2023-03-27T03:01:32.624Z,101275.84
2023-03-27T03:06:57.172Z,101277.06
2023-03-27T03:12:00.653Z,101307.66
2023-03-27T03:17:04.691Z,101332.38
2023-03-27T03:22:08.076Z,101336.38
2023-03-27T03:27:12.631Z,101327.34
2023-03-27T03:32:24.162Z,101322.56
2023-03-27T03:37:29.298Z,101219.47
2023-03-27T03:42:33.709Z,101355.88
2023-03-27T03:47:40.607Z,101370.81
2023-03-27T03:52:43.622Z,101378.53
2023-03-27T03:57:48.049Z,101379.38
2023-03-27T04:02:58.595Z,101389.06
2023-03-27T04:08:02.654Z,101359.03
2023-03-27T04:13:27.320Z,101392.66
2023-03-27T04:18:41.322Z,101403.63
2023-03-27T04:23:51.208Z,101415.44
2023-03-27T04:29:01.021Z,101431.72
2023-03-27T04:34:26.063Z,101423.06
2023-03-27T04:39:47.786Z,101394.00
2023-03-27T04:44:52.306Z,101375.56
2023-03-27T04:49:59.227Z,101449.53
2023-03-27T04:55:07.872Z,101449.13
2023-03-27T05:00:19.939Z,101398.50
2023-03-27T05:05:25.068Z,101357.63
2023-03-27T05:10:30.850Z,101477.56
2023-03-27T05:15:35.530Z,101476.25
2023-03-27T05:20:43.785Z,101199.53
2023-03-27T05:26:00.196Z,101515.84
2023-03-27T05:31:15.724Z,101512.34
2023-03-27T05:36:31.217Z,100965.41
2023-03-27T05:41:36.929Z,101505.31
2023-03-27T05:46:43.412Z,101535.44
2023-03-27T05:51:54.452Z,101538.69
2023-03-27T05:56:57.516Z,101464.00
2023-03-27T06:02:01.526Z,101543.53
2023-03-27T06:07:18.974Z,101541.00
2023-03-27T06:12:22.036Z,101544.28
2023-03-27T06:17:31.488Z,101365.41
2023-03-27T06:22:40.112Z,101526.13
2023-03-27T06:27:43.537Z,101538.56
2023-03-27T06:32:54.224Z,101388.09
2023-03-27T06:38:00.628Z,101563.75
2023-03-27T06:43:06.068Z,101554.13
2023-03-27T06:48:25.053Z,101520.03
2023-03-27T06:53:37.382Z,101592.91
2023-03-27T06:58:41.610Z,101518.34
2023-03-27T07:03:44.695Z,101521.03
2023-03-27T07:09:07.981Z,101620.59
2023-03-27T07:14:11.032Z,101461.72
2023-03-27T07:19:13.798Z,101508.22
2023-03-27T07:24:21.195Z,101545.97
2023-03-27T07:29:23.998Z,101641.78
2023-03-27T07:34:31.060Z,101619.75
2023-03-27T07:39:41.049Z,101651.22
2023-03-27T07:44:44.562Z,101661.59
2023-03-27T07:49:47.277Z,101641.88
2023-03-27T07:54:57.828Z,101668.50
2023-03-27T08:00:13.365Z,101683.88
2023-03-27T08:05:20.138Z,101661.94
2023-03-27T08:10:35.514Z,101702.19
2023-03-27T08:15:38.750Z,101669.06
2023-03-27T08:20:57.065Z,101706.28
2023-03-27T08:26:03.624Z,101705.09
2023-03-27T08:31:14.619Z,101701.09
2023-03-27T08:36:19.940Z,101721.34
2023-03-27T13:39:26.537Z,101682.84
2023-03-27T13:45:07.242Z,101747.91
2023-03-27T13:50:34.554Z,101714.19
2023-03-27T13:56:23.048Z,101929.09
2023-03-27T14:02:00.032Z,101678.56
2023-03-27T14:07:40.391Z,101917.81
2023-03-27T14:12:59.247Z,101357.41
2023-03-27T14:18:34.044Z,101913.66
2023-03-27T14:23:50.343Z,101892.00
2023-03-27T14:29:11.120Z,101890.41
2023-03-27T14:34:24.766Z,101935.41
2023-03-27T14:39:54.131Z,101935.28
2023-03-27T14:45:20.634Z,101793.13
2023-03-27T14:50:49.994Z,101936.00
2023-03-27T14:56:29.043Z,101501.81
2023-03-27T15:02:10.860Z,101946.63
2023-03-27T15:07:32.769Z,101661.56
2023-03-27T15:12:56.794Z,101741.19
2023-03-27T15:18:47.397Z,101502.09
2023-03-27T15:24:01.577Z,101751.94
2023-03-27T15:29:23.088Z,101978.91
2023-03-27T15:35:22.200Z,101967.81
2023-03-27T15:40:54.013Z,101499.47
2023-03-27T15:46:02.716Z,101805.13
2023-03-27T15:58:41.737Z,101971.59
2023-03-27T16:03:58.539Z,101741.72
2023-03-27T16:09:41.337Z,101663.50
2023-03-27T16:15:08.454Z,102009.72
2023-03-27T16:20:51.851Z,101936.06
2023-03-27T16:26:05.884Z,101855.00
2023-03-27T16:31:15.804Z,101868.03
2023-03-27T16:36:24.585Z,102041.25
2023-03-27T16:41:27.676Z,101966.59
2023-03-27T16:46:34.222Z,101834.13
2023-03-27T16:51:39.243Z,101871.28
2023-03-27T16:56:42.357Z,102031.81
2023-03-27T17:01:54.166Z,101784.94
2023-03-27T17:07:00.098Z,101786.22
2023-03-27T17:12:13.388Z,101648.34
2023-03-27T17:17:21.040Z,102091.59
2023-03-27T17:22:29.827Z,102091.59
2023-03-27T17:27:39.748Z,102076.72
2023-03-27T17:32:45.970Z,101750.44
2023-03-27T17:37:50.959Z,101865.53
2023-03-27T17:42:59.765Z,101887.09
2023-03-27T17:48:07.195Z,102111.97
2023-03-27T17:59:33.893Z,101938.06
2023-03-27T18:04:43.777Z,102067.41
2023-03-27T18:09:51.798Z,101835.41
2023-03-27T18:14:57.540Z,101772.06
2023-03-27T18:20:10.480Z,102166.00
2023-03-27T18:25:18.826Z,102158.84
2023-03-27T18:30:34.833Z,101754.28
2023-03-27T18:41:59.278Z,102175.03
2023-03-27T18:47:31.328Z,101914.03
2023-03-27T18:53:07.025Z,101675.81
2023-03-27T19:19:35.392Z,102202.38
2023-03-27T19:25:12.301Z,101979.13
2023-03-27T19:30:25.659Z,102224.97
2023-03-27T19:35:48.565Z,101893.59
2023-03-27T19:41:23.704Z,101800.38
2023-03-27T19:46:30.969Z,102200.88
2023-03-27T19:52:25.524Z,102214.09
2023-03-27T19:57:45.350Z,102122.53
2023-03-27T20:02:49.363Z,102220.13
2023-03-27T20:07:52.085Z,102226.34
2023-03-27T20:12:54.705Z,102232.13
2023-03-27T20:17:59.161Z,102238.47
2023-03-27T20:23:02.583Z,102228.19
2023-03-27T20:28:07.299Z,102235.34
2023-03-27T20:33:11.301Z,102236.56
2023-03-27T20:38:14.621Z,102232.19
2023-03-27T20:43:19.386Z,102224.47
2023-03-27T20:48:23.274Z,102240.03
2023-03-27T20:53:30.999Z,102239.22
2023-03-27T20:58:36.624Z,102239.50
2023-03-27T21:03:46.360Z,102236.88
2023-03-27T21:08:48.959Z,102237.16
2023-03-27T21:13:51.499Z,102250.25
2023-03-27T21:18:55.502Z,102247.81
2023-03-27T21:23:58.067Z,102257.53
2023-03-27T21:29:00.677Z,102258.25
2023-03-27T21:34:04.609Z,102259.22
2023-03-27T21:39:08.483Z,102263.56
2023-03-27T21:44:11.098Z,102268.91
2023-03-27T21:49:16.075Z,102271.59
2023-03-27T21:54:18.658Z,102272.31
2023-03-27T21:59:21.223Z,102278.31
2023-03-27T22:04:26.711Z,102267.81
2023-03-27T22:09:29.728Z,102277.44
2023-03-27T22:14:32.535Z,102285.28
2023-03-27T22:19:36.610Z,102277.66
2023-03-27T22:24:39.427Z,102287.38
2023-03-27T22:29:41.987Z,102280.28
2023-03-27T22:34:48.356Z,102291.69
2023-03-27T22:39:51.394Z,102303.03
2023-03-27T22:44:53.910Z,102301.53
2023-03-27T22:49:57.956Z,102305.91
2023-03-27T22:55:00.988Z,102311.16
2023-03-27T23:00:03.770Z,102313.97
2023-03-27T23:05:08.982Z,102320.19
2023-03-27T23:10:11.785Z,102317.00
2023-03-27T23:15:14.395Z,102328.28
2023-03-27T23:20:18.774Z,102324.03
2023-03-27T23:25:21.857Z,102319.72
2023-03-27T23:30:24.626Z,102331.97
2023-03-27T23:35:28.566Z,102332.03
2023-03-27T23:40:34.873Z,102336.50
2023-03-27T23:45:37.712Z,102341.16
2023-03-27T23:50:41.777Z,102342.09
2023-03-27T23:55:44.366Z,102345.50
